createdAt,value
2023-05-10T00:00:33.327Z,94969.75
2023-05-10T00:03:00.000Z,94967.84
2023-05-10T00:05:26.728Z,94959.28
2023-05-10T00:07:53.358Z,94971.63
2023-05-10T00:10:20.045Z,94964.63
2023-05-10T00:12:46.689Z,94974.22
2023-05-10T00:15:13.310Z,94968.91
2023-05-10T00:17:39.992Z,94977.38
2023-05-10T00:20:07.066Z,94973.81
2023-05-10T00:22:33.681Z,94976.22
2023-05-10T00:25:00.282Z,94972.16
2023-05-10T00:27:26.880Z,94980.34
2023-05-10T00:29:53.606Z,94973.38
2023-05-10T00:32:20.273Z,94965.66
2023-05-10T00:34:46.927Z,94968.63
2023-05-10T00:37:13.557Z,94974.09
2023-05-10T00:39:40.184Z,94987.63
2023-05-10T00:42:06.820Z,94976.47
2023-05-10T00:44:33.538Z,94981.63
2023-05-10T00:47:00.652Z,94973.22
2023-05-10T00:49:27.691Z,94973.50
2023-05-10T00:51:54.523Z,94972.72
2023-05-10T00:54:21.293Z,94970.78
2023-05-10T00:56:47.978Z,94974.78
2023-05-10T00:59:15.100Z,94973.47
2023-05-10T01:01:41.795Z,94971.94
2023-05-10T01:04:08.696Z,94980.25
2023-05-10T01:06:35.375Z,94967.19
2023-05-10T01:09:02.319Z,94972.81
2023-05-10T01:11:29.068Z,94973.16
2023-05-10T01:13:58.597Z,94966.16
2023-05-10T01:16:27.367Z,94968.66
2023-05-10T01:18:54.172Z,94966.22
2023-05-10T01:21:32.615Z,94967.84
2023-05-10T01:24:13.881Z,94962.41
2023-05-10T01:27:20.921Z,94971.28
2023-05-10T01:30:14.799Z,94970.88
2023-05-10T01:33:12.117Z,94967.97
2023-05-10T01:35:44.092Z,94964.63
2023-05-10T01:38:25.926Z,94973.69
2023-05-10T01:41:06.838Z,94967.81
2023-05-10T01:43:57.925Z,94967.56
2023-05-10T01:46:41.486Z,94970.66
2023-05-10T01:49:31.845Z,94976.56
2023-05-10T01:52:08.492Z,94980.19
2023-05-10T01:54:39.522Z,94978.25
2023-05-10T01:57:10.000Z,94979.28
2023-05-10T01:59:40.261Z,94975.81
2023-05-10T02:02:13.226Z,94973.69
2023-05-10T02:04:41.872Z,94973.69
2023-05-10T02:07:11.013Z,94974.03
2023-05-10T02:09:39.257Z,94981.41
2023-05-10T02:12:08.741Z,94980.47
2023-05-10T02:14:37.875Z,94978.88
2023-05-10T02:17:07.933Z,94976.66
2023-05-10T02:19:38.706Z,94973.09
2023-05-10T02:22:07.663Z,94976.81
2023-05-10T02:24:39.449Z,94978.84
2023-05-10T02:27:08.431Z,94975.53
2023-05-10T02:29:37.450Z,94973.97
2023-05-10T02:32:05.248Z,94977.19
2023-05-10T02:34:33.895Z,94983.03
2023-05-10T02:37:03.484Z,94989.59
2023-05-10T02:39:33.081Z,94979.84
2023-05-10T02:42:02.722Z,94986.75
2023-05-10T02:44:31.102Z,94982.38
2023-05-10T02:46:58.450Z,94997.47
2023-05-10T02:49:25.154Z,94984.34
2023-05-10T02:52:00.917Z,94996.88
2023-05-10T02:54:33.021Z,95006.81
2023-05-10T02:57:04.792Z,95003.03
2023-05-10T02:59:32.055Z,95007.19
2023-05-10T03:01:59.868Z,95000.22
2023-05-10T03:04:26.538Z,95011.38
2023-05-10T03:06:54.197Z,95006.75
2023-05-10T03:09:20.877Z,95019.91
2023-05-10T03:12:01.652Z,95019.94
2023-05-10T03:14:30.997Z,95022.56
2023-05-10T03:17:05.919Z,95017.03
2023-05-10T03:19:55.244Z,95027.28
2023-05-10T03:22:35.588Z,95020.50
2023-05-10T03:25:07.692Z,95026.34
2023-05-10T03:27:36.577Z,95023.00
2023-05-10T03:30:06.160Z,95025.59
2023-05-10T03:32:32.955Z,95023.06
2023-05-10T03:34:59.720Z,95023.47
2023-05-10T03:37:26.330Z,95030.28
2023-05-10T03:39:53.097Z,95022.75
2023-05-10T03:42:19.839Z,95021.28
2023-05-10T03:44:46.853Z,95023.03
2023-05-10T03:47:13.517Z,95026.28
2023-05-10T03:49:40.160Z,95032.00
2023-05-10T03:52:06.775Z,95030.00
2023-05-10T03:54:33.407Z,95031.44
2023-05-10T03:57:00.036Z,95033.72
2023-05-10T03:59:26.650Z,95032.28
2023-05-10T04:01:53.379Z,95041.31
2023-05-10T04:04:20.253Z,95041.91
2023-05-10T04:06:47.044Z,95036.91
2023-05-10T04:09:13.765Z,95036.03
2023-05-10T04:11:40.433Z,95042.25
2023-05-10T04:14:07.414Z,95032.56
2023-05-10T04:16:34.146Z,95037.63
2023-05-10T04:19:00.792Z,95043.25
2023-05-10T04:21:27.509Z,95041.06
2023-05-10T04:23:54.145Z,95039.22
2023-05-10T04:26:21.010Z,95040.16
2023-05-10T04:28:47.662Z,95041.09
2023-05-10T04:31:14.314Z,95032.22
2023-05-10T04:33:41.062Z,95029.81
2023-05-10T04:36:07.913Z,95029.66
2023-05-10T04:38:34.530Z,95026.91
2023-05-10T04:41:11.543Z,95026.47
2023-05-10T04:43:39.391Z,95031.72
2023-05-10T04:46:07.023Z,95019.88
2023-05-10T04:48:34.331Z,95026.13
2023-05-10T04:51:01.038Z,95024.22
2023-05-10T04:53:27.730Z,95023.84
2023-05-10T04:55:54.951Z,95026.97
2023-05-10T04:58:24.536Z,95019.66
2023-05-10T05:00:51.223Z,95019.63
2023-05-10T05:03:17.893Z,95019.13
2023-05-10T05:05:45.067Z,95024.31
2023-05-10T05:08:11.669Z,95031.22
2023-05-10T05:10:38.500Z,95035.47
2023-05-10T05:13:05.201Z,95035.72
2023-05-10T05:15:31.924Z,95033.53
2023-05-10T05:17:58.609Z,95029.75
2023-05-10T05:20:25.269Z,95037.41
2023-05-10T05:22:51.897Z,95032.09
2023-05-10T05:25:18.467Z,95039.41
2023-05-10T05:27:45.130Z,95054.59
2023-05-10T05:30:12.008Z,95040.97
2023-05-10T05:32:38.673Z,95045.22
2023-05-10T05:35:05.702Z,95043.09
2023-05-10T05:37:32.332Z,95041.19
2023-05-10T05:39:59.026Z,95043.53
2023-05-10T05:42:25.725Z,95052.03
2023-05-10T05:44:52.456Z,95053.66
2023-05-10T05:47:19.179Z,95053.47
2023-05-10T05:49:45.868Z,95054.69
2023-05-10T05:52:12.516Z,95056.53
2023-05-10T05:54:39.262Z,95055.91
2023-05-10T05:57:06.163Z,95052.28
2023-05-10T05:59:32.804Z,95052.59
2023-05-10T06:01:59.495Z,95052.69
2023-05-10T06:04:26.191Z,95049.59
2023-05-10T06:06:52.894Z,95043.38
2023-05-10T06:09:19.592Z,95042.59
2023-05-10T06:11:46.218Z,95041.94
2023-05-10T06:14:12.845Z,95045.25
2023-05-10T06:16:39.517Z,95049.03
2023-05-10T06:19:06.143Z,95049.44
2023-05-10T06:21:32.838Z,95051.78
2023-05-10T06:23:59.425Z,95046.56
2023-05-10T06:26:26.046Z,95045.47
2023-05-10T06:28:52.652Z,95050.41
2023-05-10T06:31:19.497Z,95050.53
2023-05-10T06:33:46.155Z,95042.44
2023-05-10T06:36:12.865Z,95045.22
2023-05-10T06:38:39.638Z,95036.53
2023-05-10T06:41:06.300Z,95046.69
2023-05-10T06:43:32.930Z,95043.25
2023-05-10T06:45:59.566Z,95041.88
2023-05-10T06:48:26.277Z,95040.88
2023-05-10T06:50:52.895Z,95037.38
2023-05-10T06:53:19.521Z,95041.72
2023-05-10T06:55:46.141Z,95046.56
2023-05-10T06:58:12.986Z,95043.66
2023-05-10T07:00:39.679Z,95044.63
2023-05-10T07:03:06.374Z,95045.47
2023-05-10T07:05:33.162Z,95055.38
2023-05-10T07:07:59.933Z,95050.34
2023-05-10T07:10:28.979Z,95047.63
2023-05-10T07:12:55.639Z,95049.56
2023-05-10T07:15:22.480Z,95058.06
2023-05-10T07:17:49.159Z,95051.75
2023-05-10T07:20:16.101Z,95058.19
2023-05-10T07:22:42.792Z,95061.88
2023-05-10T07:25:09.586Z,95063.50
2023-05-10T07:27:36.213Z,95065.19
2023-05-10T07:30:02.904Z,95059.63
2023-05-10T07:32:29.808Z,95066.88
2023-05-10T07:34:56.518Z,95073.59
2023-05-10T07:37:23.105Z,95071.09
2023-05-10T07:39:49.773Z,95069.25
2023-05-10T07:42:16.409Z,95080.00
2023-05-10T07:44:42.990Z,95070.88
2023-05-10T07:47:09.625Z,95074.56
2023-05-10T07:49:36.214Z,95083.03
2023-05-10T07:52:04.468Z,95083.88
2023-05-10T07:54:31.074Z,95081.84
2023-05-10T07:56:57.687Z,95083.00
2023-05-10T07:59:24.297Z,95088.44
2023-05-10T08:01:51.056Z,95084.72
2023-05-10T08:04:17.703Z,95079.41
2023-05-10T08:06:44.332Z,95080.16
2023-05-10T08:09:11.096Z,95079.97
2023-05-10T08:11:38.684Z,95078.91
2023-05-10T08:14:05.274Z,95076.78
2023-05-10T08:16:31.913Z,95075.75
2023-05-10T08:18:58.934Z,95084.63
2023-05-10T08:21:25.686Z,95082.06
2023-05-10T08:23:52.431Z,95084.88
2023-05-10T08:26:19.119Z,95076.94
2023-05-10T08:28:45.744Z,95078.09
2023-05-10T08:31:13.209Z,95076.03
2023-05-10T08:33:41.530Z,95068.72
2023-05-10T08:36:09.096Z,95077.03
2023-05-10T08:38:35.856Z,95073.09
2023-05-10T08:41:03.486Z,95075.59
2023-05-10T08:43:31.073Z,95075.38
2023-05-10T08:46:02.004Z,95071.31
2023-05-10T08:48:30.400Z,95078.66
2023-05-10T08:51:01.304Z,95082.59
2023-05-10T08:53:31.778Z,95082.75
2023-05-10T08:55:58.846Z,95083.66
2023-05-10T08:58:26.222Z,95076.25
2023-05-10T09:00:53.730Z,95078.69
2023-05-10T09:03:20.457Z,95075.22
2023-05-10T09:05:47.801Z,95085.88
2023-05-10T09:08:14.810Z,95093.56
2023-05-10T09:10:43.520Z,95090.91
2023-05-10T09:13:11.868Z,95089.84
2023-05-10T09:15:39.592Z,95086.00
2023-05-10T09:18:06.421Z,95090.25
2023-05-10T09:20:33.287Z,95092.03
2023-05-10T09:22:59.975Z,95092.53
2023-05-10T09:25:26.619Z,95098.44
2023-05-10T09:27:53.927Z,95098.44
2023-05-10T09:30:31.711Z,95100.28
2023-05-10T09:33:00.350Z,95099.28
2023-05-10T09:35:30.955Z,95093.50
2023-05-10T09:38:01.983Z,95083.06
2023-05-10T09:40:30.433Z,95092.09
2023-05-10T09:43:02.218Z,95096.63
2023-05-10T09:45:30.760Z,95092.66
2023-05-10T09:47:58.165Z,95098.75
2023-05-10T09:50:24.925Z,95093.50
2023-05-10T09:52:54.898Z,95103.19
2023-05-10T09:55:24.184Z,95100.69
2023-05-10T09:58:00.675Z,95091.13
2023-05-10T10:00:28.439Z,95095.97
2023-05-10T10:02:57.418Z,95094.09
2023-05-10T10:05:31.240Z,95102.22
2023-05-10T10:08:00.094Z,95090.50
2023-05-10T10:10:28.244Z,95099.03
2023-05-10T10:12:56.441Z,95102.25
2023-05-10T10:15:24.981Z,95097.66
2023-05-10T10:17:53.452Z,95094.94
2023-05-10T10:20:22.683Z,95083.94
2023-05-10T10:22:49.431Z,95096.84
2023-05-10T10:25:18.513Z,95095.53
2023-05-10T10:27:54.234Z,95080.47
2023-05-10T10:30:20.904Z,95079.78
2023-05-10T10:33:24.352Z,95086.16
2023-05-10T10:35:59.003Z,95084.50
2023-05-10T10:38:25.804Z,95092.41
2023-05-10T10:41:11.984Z,95087.69
2023-05-10T10:43:39.797Z,95088.75
2023-05-10T10:46:13.398Z,95084.34
2023-05-10T10:48:50.424Z,95090.13
2023-05-10T10:51:19.362Z,95083.34
2023-05-10T10:53:49.067Z,95086.78
2023-05-10T10:56:15.794Z,95082.25
2023-05-10T10:58:49.811Z,95081.34
2023-05-10T11:01:19.070Z,95088.81
2023-05-10T11:04:04.012Z,95078.97
2023-05-10T11:06:32.513Z,95084.81
2023-05-10T11:08:59.404Z,95081.78
2023-05-10T11:11:26.051Z,95076.19
2023-05-10T11:13:52.862Z,95094.16
2023-05-10T11:16:25.168Z,95081.19
2023-05-10T11:19:00.062Z,95078.88
2023-05-10T11:21:26.905Z,95071.97
2023-05-10T11:23:56.336Z,95075.00
2023-05-10T11:26:30.980Z,95074.53
2023-05-10T11:28:57.715Z,95076.50
2023-05-10T11:31:24.954Z,95075.44
2023-05-10T11:33:54.517Z,95070.88
2023-05-10T11:36:24.696Z,95080.47
2023-05-10T11:38:51.370Z,95074.16
2023-05-10T11:41:21.832Z,95074.84
2023-05-10T11:43:54.666Z,95082.25
2023-05-10T11:46:26.793Z,95076.13
2023-05-10T11:48:58.161Z,95078.03
2023-05-10T11:51:26.101Z,95073.81
2023-05-10T11:53:56.454Z,95088.25
2023-05-10T11:56:23.249Z,95083.84
2023-05-10T11:58:55.554Z,95075.91
2023-05-10T12:01:23.396Z,95076.69
2023-05-10T12:03:51.583Z,95071.38
2023-05-10T12:06:19.766Z,95074.69
2023-05-10T12:08:48.761Z,95069.03
2023-05-10T12:11:15.573Z,95075.44
2023-05-10T12:13:44.980Z,95071.22
2023-05-10T12:16:21.784Z,95074.50
2023-05-10T12:18:53.864Z,95069.53
2023-05-10T12:21:22.117Z,95075.75
2023-05-10T12:23:54.341Z,95067.84
2023-05-10T12:26:24.965Z,95073.19
2023-05-10T12:28:51.579Z,95075.13
2023-05-10T12:31:18.214Z,95071.25
2023-05-10T12:33:45.851Z,95071.03
2023-05-10T12:36:15.341Z,95077.63
2023-05-10T12:38:42.795Z,95083.06
2023-05-10T12:41:14.680Z,95082.22
2023-05-10T12:43:41.751Z,95082.69
2023-05-10T12:46:14.317Z,95078.78
2023-05-10T12:48:43.038Z,95075.00
2023-05-10T12:51:10.776Z,95079.19
2023-05-10T12:53:37.383Z,95085.28
2023-05-10T12:56:04.101Z,95082.69
2023-05-10T12:58:36.060Z,95084.59
2023-05-10T13:01:03.778Z,95080.56
2023-05-10T13:03:30.672Z,95091.81
2023-05-10T13:05:57.274Z,95088.59
2023-05-10T13:08:24.076Z,95086.28
2023-05-10T13:10:50.881Z,95088.59
2023-05-10T13:13:17.493Z,95085.31
2023-05-10T13:15:44.110Z,95085.38
2023-05-10T13:18:11.137Z,95086.94
2023-05-10T13:20:37.978Z,95081.63
2023-05-10T13:23:04.649Z,95090.06
2023-05-10T13:25:31.268Z,95089.19
2023-05-10T13:27:57.848Z,95091.00
2023-05-10T13:30:24.467Z,95089.97
2023-05-10T13:32:51.317Z,95084.22
2023-05-10T13:35:18.188Z,95084.97
2023-05-10T13:37:44.921Z,95090.88
2023-05-10T13:40:11.805Z,95093.66
2023-05-10T13:42:38.532Z,95093.66
2023-05-10T13:45:05.821Z,95092.34
2023-05-10T13:47:32.494Z,95092.19
2023-05-10T13:49:59.132Z,95088.75
2023-05-10T13:52:25.831Z,95080.41
2023-05-10T13:54:52.417Z,95088.75
2023-05-10T13:57:19.495Z,95083.06
2023-05-10T13:59:46.146Z,95086.81
2023-05-10T14:02:12.860Z,95082.22
2023-05-10T14:04:39.722Z,95083.25
2023-05-10T14:07:06.951Z,95077.94
2023-05-10T14:09:33.674Z,95084.69
2023-05-10T14:12:00.293Z,95081.22
2023-05-10T14:14:26.928Z,95083.69
2023-05-10T14:16:53.901Z,95082.56
2023-05-10T14:19:20.509Z,95082.13
2023-05-10T14:21:47.114Z,95084.88
2023-05-10T14:24:13.736Z,95084.59
2023-05-10T14:26:40.376Z,95082.06
2023-05-10T14:29:06.998Z,95081.47
2023-05-10T14:31:33.680Z,95077.09
2023-05-10T14:34:00.449Z,95071.13
2023-05-10T14:36:27.067Z,95078.09
2023-05-10T14:38:53.659Z,95070.88
2023-05-10T14:41:20.268Z,95071.41
2023-05-10T14:43:46.924Z,95073.69
2023-05-10T14:46:13.582Z,95085.00
2023-05-10T14:48:40.272Z,95077.16
2023-05-10T14:51:06.927Z,95075.06
2023-05-10T14:53:33.587Z,95081.34
2023-05-10T14:56:00.211Z,95080.75
2023-05-10T14:58:26.817Z,95072.31
2023-05-10T15:00:53.558Z,95085.03
2023-05-10T15:03:20.555Z,95080.59
2023-05-10T15:05:47.677Z,95079.59
2023-05-10T15:08:14.345Z,95084.72
2023-05-10T15:10:41.357Z,95082.09
2023-05-10T15:13:07.965Z,95087.81
2023-05-10T15:15:34.694Z,95086.53
2023-05-10T15:18:01.520Z,95082.84
2023-05-10T15:20:28.219Z,95082.59
2023-05-10T15:22:54.958Z,95088.25
2023-05-10T15:25:21.647Z,95086.53
2023-05-10T15:27:48.265Z,95089.97
2023-05-10T15:30:15.089Z,95085.50
2023-05-10T15:32:41.716Z,95095.91
2023-05-10T15:35:11.422Z,95088.88
2023-05-10T15:37:40.698Z,95089.53
2023-05-10T15:40:07.619Z,95085.53
2023-05-10T15:42:34.380Z,95090.69
2023-05-10T15:45:01.031Z,95088.06
2023-05-10T15:47:28.160Z,95090.22
2023-05-10T15:49:54.788Z,95092.59
2023-05-10T15:52:21.600Z,95089.06
2023-05-10T15:54:48.268Z,95093.50
2023-05-10T15:57:14.946Z,95098.63
2023-05-10T15:59:41.626Z,95096.38
2023-05-10T16:02:10.079Z,95097.03
2023-05-10T16:04:37.093Z,95095.53
2023-05-10T16:07:03.791Z,95093.81
2023-05-10T16:09:30.691Z,95103.25
2023-05-10T16:11:57.399Z,95099.16
2023-05-10T16:14:24.355Z,95094.66
2023-05-10T16:16:51.082Z,95084.72
2023-05-10T16:19:17.775Z,95092.47
2023-05-10T16:21:44.474Z,95092.16
2023-05-10T16:24:11.211Z,95090.81
2023-05-10T16:26:38.262Z,95095.66
2023-05-10T16:29:04.956Z,95094.16
2023-05-10T16:31:31.809Z,95090.41
2023-05-10T16:33:58.432Z,95096.22
2023-05-10T16:36:25.082Z,95093.09
2023-05-10T16:38:51.704Z,95104.31
2023-05-10T16:41:18.362Z,95095.81
2023-05-10T16:43:44.999Z,95105.66
2023-05-10T16:46:12.692Z,95100.78
2023-05-10T16:48:40.506Z,95100.78
2023-05-10T16:51:07.195Z,95094.88
2023-05-10T16:53:34.189Z,95091.38
2023-05-10T16:56:00.831Z,95096.88
2023-05-10T16:58:27.789Z,95092.38
2023-05-10T17:00:54.435Z,95097.06
2023-05-10T17:03:21.405Z,95086.13
2023-05-10T17:05:48.111Z,95093.56
2023-05-10T17:08:14.770Z,95098.44
2023-05-10T17:10:41.463Z,95096.41
2023-05-10T17:13:10.419Z,95099.13
2023-05-10T17:15:38.953Z,95096.31
2023-05-10T17:18:08.026Z,95095.50
2023-05-10T17:20:34.747Z,95093.66
2023-05-10T17:23:01.421Z,95094.44
2023-05-10T17:25:28.047Z,95098.75
2023-05-10T17:27:54.940Z,95096.38
2023-05-10T17:30:21.599Z,95096.34
2023-05-10T17:32:48.478Z,95090.75
2023-05-10T17:35:15.258Z,95089.44
2023-05-10T17:37:42.032Z,95091.72
2023-05-10T17:40:09.521Z,95089.06
2023-05-10T17:42:36.163Z,95093.66
2023-05-10T17:45:03.004Z,95094.88
2023-05-10T17:47:29.688Z,95089.84
2023-05-10T17:49:56.359Z,95095.06
2023-05-10T17:52:23.100Z,95092.78
2023-05-10T17:54:49.750Z,95092.03
2023-05-10T17:57:16.600Z,95094.63
2023-05-10T17:59:43.261Z,95101.13
2023-05-10T18:02:09.967Z,95093.16
2023-05-10T18:04:39.300Z,95096.25
2023-05-10T18:07:06.159Z,95093.63
2023-05-10T18:09:32.819Z,95092.97
2023-05-10T18:11:59.571Z,95101.91
2023-05-10T18:14:36.537Z,95102.72
2023-05-10T18:17:07.117Z,95101.41
2023-05-10T18:19:33.804Z,95094.84
2023-05-10T18:22:00.450Z,95096.53
2023-05-10T18:24:38.275Z,95099.19
2023-05-10T18:27:06.564Z,95107.66
2023-05-10T18:29:33.235Z,95104.28
2023-05-10T18:32:00.180Z,95114.41
2023-05-10T18:34:26.876Z,95109.88
2023-05-10T18:36:53.545Z,95109.22
2023-05-10T18:39:20.213Z,95105.59
2023-05-10T18:41:46.930Z,95113.81
2023-05-10T18:44:13.533Z,95113.78
2023-05-10T18:46:40.366Z,95113.66
2023-05-10T18:49:07.184Z,95120.97
2023-05-10T18:51:33.895Z,95113.06
2023-05-10T18:54:00.594Z,95116.47
2023-05-10T18:56:27.267Z,95116.00
2023-05-10T18:58:53.886Z,95111.91
2023-05-10T19:01:20.474Z,95107.25
2023-05-10T19:03:47.230Z,95111.53
2023-05-10T19:06:13.833Z,95109.94
2023-05-10T19:08:40.476Z,95113.75
2023-05-10T19:11:07.108Z,95114.38
2023-05-10T19:13:34.136Z,95126.38
2023-05-10T19:16:06.024Z,95118.31
2023-05-10T19:18:33.248Z,95125.09
2023-05-10T19:21:01.582Z,95128.13
2023-05-10T19:23:30.106Z,95132.03
2023-05-10T19:25:56.896Z,95130.94
2023-05-10T19:28:23.614Z,95125.78
2023-05-10T19:30:50.372Z,95136.91
2023-05-10T19:33:20.215Z,95138.44
2023-05-10T19:35:49.361Z,95139.16
2023-05-10T19:38:15.974Z,95139.34
2023-05-10T19:40:42.673Z,95137.06
2023-05-10T19:43:09.361Z,95136.84
2023-05-10T19:45:36.178Z,95136.22
2023-05-10T19:48:02.844Z,95135.84
2023-05-10T19:50:29.659Z,95146.66
2023-05-10T19:52:56.397Z,95138.19
2023-05-10T19:55:28.930Z,95138.56
2023-05-10T19:57:55.949Z,95141.66
2023-05-10T20:00:23.103Z,95144.72
2023-05-10T20:02:50.036Z,95144.78
2023-05-10T20:05:17.037Z,95144.50
2023-05-10T20:07:43.916Z,95146.22
2023-05-10T20:10:11.383Z,95145.66
2023-05-10T20:12:38.137Z,95152.28
2023-05-10T20:15:07.514Z,95148.81
2023-05-10T20:17:35.349Z,95143.34
2023-05-10T20:20:02.546Z,95144.44
2023-05-10T20:22:29.335Z,95148.59
2023-05-10T20:24:56.277Z,95149.41
2023-05-10T20:27:23.332Z,95153.31
2023-05-10T20:29:49.967Z,95149.81
2023-05-10T20:32:16.572Z,95143.72
2023-05-10T20:34:43.244Z,95145.16
2023-05-10T20:37:09.859Z,95141.81
2023-05-10T20:39:36.466Z,95140.47
2023-05-10T20:42:03.313Z,95147.50
2023-05-10T20:44:29.917Z,95157.63
2023-05-10T20:46:56.728Z,95156.94
2023-05-10T20:49:23.445Z,95148.66
2023-05-10T20:51:50.031Z,95150.41
2023-05-10T20:54:16.853Z,95148.41
2023-05-10T20:56:43.465Z,95150.59
2023-05-10T20:59:10.713Z,95149.66
2023-05-10T21:01:38.509Z,95149.91
2023-05-10T21:04:05.179Z,95145.34
2023-05-10T21:06:31.812Z,95154.09
2023-05-10T21:08:58.685Z,95151.66
2023-05-10T21:11:25.353Z,95149.97
2023-05-10T21:13:51.998Z,95155.78
2023-05-10T21:16:18.734Z,95152.75
2023-05-10T21:18:45.417Z,95153.00
2023-05-10T21:21:12.089Z,95154.00
2023-05-10T21:23:38.746Z,95149.75
2023-05-10T21:26:05.383Z,95148.69
2023-05-10T21:28:32.100Z,95143.50
2023-05-10T21:30:58.739Z,95145.06
2023-05-10T21:33:25.396Z,95136.91
2023-05-10T21:35:52.454Z,95139.59
2023-05-10T21:38:19.121Z,95138.34
2023-05-10T21:40:45.791Z,95136.72
2023-05-10T21:43:12.384Z,95132.88
2023-05-10T21:45:39.063Z,95138.38
2023-05-10T21:48:05.766Z,95132.72
2023-05-10T21:50:32.436Z,95132.59
2023-05-10T21:52:59.507Z,95139.03
2023-05-10T21:55:26.149Z,95137.63
2023-05-10T21:57:52.768Z,95133.25
2023-05-10T22:00:19.758Z,95141.13
2023-05-10T22:02:46.985Z,95131.53
2023-05-10T22:05:13.714Z,95130.25
2023-05-10T22:07:40.350Z,95132.63
2023-05-10T22:10:09.573Z,95138.03
2023-05-10T22:12:36.252Z,95125.34
2023-05-10T22:17:32.702Z,95133.75
2023-05-10T22:19:59.490Z,95136.75
2023-05-10T22:22:26.082Z,95124.06
2023-05-10T22:24:52.688Z,95127.75
2023-05-10T22:27:19.305Z,95129.72
2023-05-10T22:29:45.917Z,95122.22
2023-05-10T22:32:12.533Z,95123.97
2023-05-10T22:34:39.139Z,95122.00
2023-05-10T22:37:05.818Z,95133.31
2023-05-10T22:39:33.176Z,95131.44
2023-05-10T22:41:59.777Z,95133.16
2023-05-10T22:44:27.313Z,95130.88
2023-05-10T22:46:54.014Z,95133.28
2023-05-10T22:49:20.700Z,95124.22
2023-05-10T22:51:47.448Z,95131.69
2023-05-10T22:54:14.086Z,95125.81
2023-05-10T22:56:40.720Z,95128.91
2023-05-10T22:59:07.465Z,95121.22
2023-05-10T23:01:34.273Z,95122.63
2023-05-10T23:04:00.910Z,95129.59
2023-05-10T23:06:27.598Z,95129.47
2023-05-10T23:08:55.301Z,95128.59
2023-05-10T23:11:21.907Z,95126.13
2023-05-10T23:13:48.525Z,95133.78
2023-05-10T23:16:15.511Z,95126.88
2023-05-10T23:18:42.714Z,95122.34
2023-05-10T23:21:09.399Z,95123.41
2023-05-10T23:23:36.305Z,95128.34
2023-05-10T23:26:03.521Z,95124.38
2023-05-10T23:28:31.299Z,95126.84
2023-05-10T23:30:58.927Z,95127.75
2023-05-10T23:33:25.738Z,95115.72
2023-05-10T23:35:53.763Z,95118.78
2023-05-10T23:38:20.919Z,95115.75
2023-05-10T23:40:50.716Z,95116.78
2023-05-10T23:43:17.857Z,95113.78
2023-05-10T23:45:54.831Z,95119.34
2023-05-10T23:48:21.606Z,95111.53
2023-05-10T23:50:48.569Z,95110.22
2023-05-10T23:53:15.860Z,95109.22
2023-05-10T23:55:42.461Z,95104.41
2023-05-10T23:58:09.075Z,95103.22
